createdAt,value
2019-03-26T00:00:38.664Z,444.23
2019-03-26T00:03:08.481Z,602.78
2019-03-26T00:05:38.645Z,594.75
2019-03-26T00:08:08.355Z,216.60
2019-03-26T00:10:39.768Z,594.25
2019-03-26T00:13:09.593Z,598.47
2019-03-26T00:15:39.331Z,214.45
2019-03-26T00:18:09.178Z,455.27
2019-03-26T00:38:17.085Z,590.77
2019-03-26T00:40:47.131Z,578.92
2019-03-26T00:43:17.937Z,464.02
2019-03-26T00:45:47.748Z,584.30
2019-03-26T00:48:19.912Z,607.77
2019-03-26T00:50:49.770Z,470.25
2019-03-26T00:53:19.609Z,452.17
2019-03-26T00:55:49.358Z,577.83
2019-03-26T00:58:19.133Z,583.17
2019-03-26T01:00:48.989Z,588.33
2019-03-26T01:03:18.759Z,577.10
2019-03-26T01:05:48.536Z,600.85
2019-03-26T01:08:18.220Z,104.65
2019-03-26T01:10:47.915Z,106.25
2019-03-26T01:13:17.608Z,435.80
2019-03-26T01:15:47.417Z,448.60
2019-03-26T01:18:19.197Z,113.37
2019-03-26T01:20:49.228Z,102.72
2019-03-26T01:23:18.979Z,441.95
2019-03-26T01:25:52.294Z,428.73
2019-03-26T01:28:22.108Z,112.80
2019-03-26T01:30:51.963Z,441.65
2019-03-26T01:33:21.675Z,32.80
2019-03-26T01:35:51.340Z,415.10
2019-03-26T01:38:21.128Z,102.12
2019-03-26T01:40:50.841Z,440.92
2019-03-26T01:43:20.570Z,437.40
2019-03-26T01:45:50.309Z,437.70
2019-03-26T01:48:20.057Z,102.25
2019-03-26T01:50:49.995Z,450.57
2019-03-26T01:53:20.409Z,456.43
2019-03-26T01:55:50.347Z,444.67
2019-03-26T01:58:20.104Z,332.12
2019-03-26T02:00:49.861Z,598.92
2019-03-26T02:03:19.628Z,584.52
2019-03-26T02:05:49.340Z,462.23
2019-03-26T02:08:19.103Z,443.80
2019-03-26T02:10:48.864Z,446.12
2019-03-26T02:13:18.577Z,586.47
2019-03-26T02:15:48.262Z,101.60
2019-03-26T02:18:18.029Z,578.42
2019-03-26T02:20:47.715Z,440.90
2019-03-26T02:23:17.417Z,569.00
2019-03-26T02:25:47.187Z,438.30
2019-03-26T02:28:16.955Z,100.45
2019-03-26T02:30:46.642Z,34.63
2019-03-26T02:33:16.350Z,182.43
2019-03-26T02:35:46.024Z,35.73
2019-03-26T02:38:15.798Z,284.77
2019-03-26T02:40:45.544Z,29.72
2019-03-26T02:43:15.219Z,157.93
2019-03-26T02:45:44.892Z,578.10
2019-03-26T02:48:14.919Z,22.50
2019-03-26T02:50:44.620Z,435.75
2019-03-26T02:53:14.377Z,289.30
2019-03-26T02:55:44.065Z,534.25
2019-03-26T02:58:13.756Z,402.78
2019-03-26T03:00:43.426Z,33.40
2019-03-26T03:03:13.129Z,18.23
2019-03-26T03:05:42.775Z,19.87
2019-03-26T03:08:12.246Z,35.20
2019-03-26T03:10:41.700Z,29.30
2019-03-26T03:13:11.095Z,17.25
2019-03-26T03:15:40.457Z,34.83
2019-03-26T03:18:10.044Z,20.80
2019-03-26T03:20:39.445Z,22.17
2019-03-26T03:23:09.117Z,27.58
2019-03-26T03:25:38.603Z,48.25
2019-03-26T03:28:08.071Z,24.72
2019-03-26T03:30:37.560Z,31.50
2019-03-26T03:33:07.047Z,19.17
2019-03-26T03:35:51.318Z,38.42
2019-03-26T03:38:07.801Z,27.40
2019-03-26T03:40:37.352Z,31.10
2019-03-26T03:43:06.798Z,20.45
2019-03-26T03:45:38.648Z,32.42
2019-03-26T03:48:09.455Z,26.80
2019-03-26T03:50:40.614Z,32.17
2019-03-26T03:53:10.845Z,27.77
2019-03-26T03:55:40.385Z,35.80
2019-03-26T03:58:09.917Z,19.87
2019-03-26T04:00:40.784Z,28.80
2019-03-26T04:03:10.823Z,24.05
2019-03-26T04:05:40.510Z,29.10
2019-03-26T04:08:10.044Z,21.77
2019-03-26T04:10:39.462Z,30.82
2019-03-26T04:13:09.044Z,36.42
2019-03-26T04:15:38.598Z,37.63
2019-03-26T04:18:08.114Z,21.82
2019-03-26T04:20:37.590Z,23.12
2019-03-26T04:23:07.049Z,20.15
2019-03-26T04:25:36.703Z,41.00
2019-03-26T04:28:06.221Z,24.57
2019-03-26T04:30:35.999Z,27.50
2019-03-26T04:33:05.455Z,17.52
2019-03-26T04:35:34.924Z,40.20
2019-03-26T04:38:04.453Z,26.20
2019-03-26T04:40:33.926Z,22.10
2019-03-26T04:43:03.395Z,23.12
2019-03-26T04:45:32.776Z,25.90
2019-03-26T04:48:02.169Z,21.00
2019-03-26T04:50:31.543Z,29.45
2019-03-26T04:53:00.932Z,35.20
2019-03-26T04:55:30.401Z,24.72
2019-03-26T04:57:59.780Z,27.62
2019-03-26T05:00:29.320Z,25.37
2019-03-26T05:02:58.797Z,18.70
2019-03-26T05:05:28.285Z,32.42
2019-03-26T05:07:57.687Z,19.23
2019-03-26T05:10:27.089Z,26.95
2019-03-26T05:12:56.498Z,30.60
2019-03-26T05:15:25.960Z,24.07
2019-03-26T05:17:56.803Z,25.45
2019-03-26T05:20:26.603Z,25.45
2019-03-26T05:22:56.063Z,17.87
2019-03-26T05:25:25.543Z,29.92
2019-03-26T05:27:54.965Z,20.23
2019-03-26T05:30:24.502Z,23.57
2019-03-26T05:32:53.971Z,17.10
2019-03-26T05:35:23.509Z,27.65
2019-03-26T05:37:52.869Z,21.90
2019-03-26T05:40:22.282Z,24.30
2019-03-26T05:42:51.804Z,34.30
2019-03-26T05:45:21.296Z,16.35
2019-03-26T05:47:50.671Z,15.93
2019-03-26T05:50:20.153Z,15.78
2019-03-26T05:52:49.590Z,16.80
2019-03-26T05:55:19.087Z,24.18
2019-03-26T05:57:48.617Z,16.00
2019-03-26T06:00:22.502Z,33.38
2019-03-26T06:02:52.072Z,22.80
2019-03-26T06:05:21.525Z,19.82
2019-03-26T06:07:50.998Z,30.60
2019-03-26T06:10:20.444Z,20.75
2019-03-26T06:12:50.367Z,26.00
2019-03-26T06:15:19.912Z,30.75
2019-03-26T06:17:49.449Z,28.30
2019-03-26T06:20:19.013Z,36.50
2019-03-26T06:22:48.411Z,23.73
2019-03-26T06:25:17.874Z,16.93
2019-03-26T06:27:50.199Z,17.48
2019-03-26T06:30:19.741Z,20.17
2019-03-26T06:32:49.444Z,21.65
2019-03-26T06:35:18.928Z,32.40
2019-03-26T06:37:48.504Z,29.00
2019-03-26T06:40:18.294Z,20.45
2019-03-26T06:42:47.862Z,19.73
2019-03-26T06:45:17.349Z,21.50
2019-03-26T06:47:46.870Z,26.68
2019-03-26T06:50:16.584Z,17.27
2019-03-26T06:52:46.201Z,28.35
2019-03-26T06:55:16.086Z,23.98
2019-03-26T06:57:45.492Z,35.35
2019-03-26T07:00:18.331Z,15.95
2019-03-26T07:02:47.889Z,24.23
2019-03-26T07:05:17.525Z,21.25
2019-03-26T07:07:48.037Z,24.05
2019-03-26T07:10:20.610Z,21.07
2019-03-26T07:12:49.992Z,16.77
2019-03-26T07:15:19.537Z,29.18
2019-03-26T07:17:52.502Z,21.48
2019-03-26T07:20:22.232Z,557.17
2019-03-26T07:22:56.337Z,460.75
2019-03-26T07:25:26.148Z,315.82
2019-03-26T07:27:55.814Z,96.50
2019-03-26T07:30:56.056Z,17.05
2019-03-26T07:33:25.460Z,545.65
2019-03-26T07:35:54.990Z,19.25
2019-03-26T07:38:24.453Z,321.75
2019-03-26T07:40:53.925Z,575.62
2019-03-26T07:43:23.496Z,72.25
2019-03-26T07:45:52.973Z,301.25
2019-03-26T07:48:22.370Z,439.35
2019-03-26T07:50:51.768Z,96.63
2019-03-26T07:53:21.220Z,87.88
2019-03-26T07:55:50.675Z,435.37
2019-03-26T07:58:20.230Z,441.70
2019-03-26T08:00:49.973Z,440.90
2019-03-26T08:03:21.220Z,319.32
2019-03-26T08:05:50.984Z,488.00
2019-03-26T08:08:20.543Z,612.58
2019-03-26T08:10:50.061Z,477.60
2019-03-26T08:13:19.518Z,347.98
2019-03-26T08:16:17.234Z,479.87
2019-03-26T08:18:47.287Z,648.10
2019-03-26T08:21:16.758Z,642.45
2019-03-26T08:23:48.573Z,379.85
2019-03-26T08:26:18.674Z,648.10
2019-03-26T08:28:48.086Z,488.25
2019-03-26T08:31:17.633Z,473.85
2019-03-26T08:33:47.221Z,490.25
2019-03-26T08:36:16.705Z,474.60
2019-03-26T08:38:46.211Z,477.58
2019-03-26T08:41:15.866Z,467.48
2019-03-26T08:43:45.680Z,613.72
2019-03-26T08:46:15.130Z,486.60
2019-03-26T08:48:46.919Z,495.82
2019-03-26T08:51:16.379Z,485.70
2019-03-26T08:53:47.332Z,473.73
2019-03-26T08:56:16.839Z,632.08
2019-03-26T08:58:46.360Z,510.65
2019-03-26T09:01:15.778Z,654.00
2019-03-26T09:03:45.173Z,206.72
2019-03-26T09:06:14.715Z,648.37
2019-03-26T09:08:44.186Z,653.75
2019-03-26T09:11:14.032Z,496.55
2019-03-26T09:13:43.440Z,649.25
2019-03-26T09:16:12.917Z,516.83
2019-03-26T09:18:42.430Z,503.27
2019-03-26T09:21:11.920Z,661.55
2019-03-26T09:23:41.389Z,518.95
2019-03-26T09:26:10.877Z,664.02
2019-03-26T09:28:40.348Z,363.52
2019-03-26T09:31:09.872Z,551.45
2019-03-26T09:33:42.230Z,670.02
2019-03-26T09:36:11.950Z,506.75
2019-03-26T09:38:41.507Z,674.55
2019-03-26T09:41:11.032Z,661.90
2019-03-26T09:43:40.502Z,665.10
2019-03-26T09:46:09.948Z,655.00
2019-03-26T09:48:39.357Z,654.17
2019-03-26T09:51:10.829Z,509.30
2019-03-26T09:53:39.945Z,511.92
2019-03-26T09:56:09.490Z,499.90
2019-03-26T09:58:38.988Z,499.20
2019-03-26T10:01:08.480Z,511.43
2019-03-26T10:03:40.872Z,671.83
2019-03-26T10:06:22.579Z,511.05
2019-03-26T10:08:51.711Z,524.25
2019-03-26T10:11:12.491Z,516.60
2019-03-26T10:13:41.989Z,525.48
2019-03-26T10:16:11.374Z,683.95
2019-03-26T10:18:40.824Z,368.30
2019-03-26T10:21:10.387Z,671.93
2019-03-26T10:23:39.995Z,673.37
2019-03-26T10:26:09.475Z,696.33
2019-03-26T10:28:39.016Z,561.17
2019-03-26T10:31:08.567Z,535.02
2019-03-26T10:33:38.012Z,538.67
2019-03-26T10:36:07.486Z,537.48
2019-03-26T10:38:38.459Z,530.63
2019-03-26T10:41:07.990Z,704.87
2019-03-26T10:43:37.546Z,695.42
2019-03-26T10:46:07.127Z,685.78
2019-03-26T10:48:36.634Z,690.00
2019-03-26T10:51:06.168Z,678.50
2019-03-26T10:53:35.666Z,554.10
2019-03-26T10:56:05.244Z,521.60
2019-03-26T10:58:34.734Z,676.73
2019-03-26T11:01:04.485Z,672.95
2019-03-26T11:03:35.007Z,520.92
2019-03-26T11:06:04.625Z,675.22
2019-03-26T11:08:34.167Z,680.70
2019-03-26T11:11:04.196Z,680.13
2019-03-26T11:13:33.650Z,685.55
2019-03-26T11:16:03.241Z,690.73
2019-03-26T11:18:32.652Z,701.85
2019-03-26T11:21:03.191Z,705.00
2019-03-26T11:23:33.038Z,702.58
2019-03-26T11:26:02.737Z,703.48
2019-03-26T11:28:32.239Z,730.50
2019-03-26T11:31:02.087Z,549.58
2019-03-26T11:33:31.720Z,550.48
2019-03-26T11:36:01.348Z,3.30
2019-03-26T11:38:30.769Z,3.30
2019-03-26T11:41:00.190Z,5.47
2019-03-26T11:43:29.600Z,4.37
2019-03-26T11:45:59.083Z,3.13
2019-03-26T11:48:28.576Z,4.37
2019-03-26T11:50:57.948Z,3.10
2019-03-26T11:53:28.001Z,3.63
2019-03-26T11:55:57.380Z,4.83
2019-03-26T11:58:30.872Z,4.47
2019-03-26T12:00:58.256Z,3.23
2019-03-26T12:03:27.740Z,3.10
2019-03-26T12:05:57.292Z,3.00
2019-03-26T12:08:26.786Z,4.77
2019-03-26T12:10:56.254Z,3.70
2019-03-26T12:13:25.719Z,2.80
2019-03-26T12:15:55.214Z,3.63
2019-03-26T12:18:24.681Z,3.40
2019-03-26T12:20:54.269Z,3.07
2019-03-26T12:23:23.813Z,4.70
2019-03-26T12:25:53.317Z,4.30
2019-03-26T12:28:22.796Z,3.70
2019-03-26T12:30:52.301Z,4.27
2019-03-26T12:33:21.796Z,4.13
2019-03-26T12:35:51.362Z,2.80
2019-03-26T12:38:24.057Z,4.47
2019-03-26T12:40:53.529Z,5.83
2019-03-26T12:43:23.045Z,3.47
2019-03-26T12:45:53.194Z,3.97
2019-03-26T12:48:23.634Z,4.40
2019-03-26T12:50:53.260Z,5.50
2019-03-26T12:53:23.741Z,4.17
2019-03-26T12:55:53.287Z,4.23
2019-03-26T12:58:31.716Z,4.03
2019-03-26T13:00:54.134Z,3.93
2019-03-26T13:03:23.533Z,5.43
2019-03-26T13:05:53.461Z,7.03
2019-03-26T13:08:22.934Z,4.27
2019-03-26T13:10:54.080Z,3.07
2019-03-26T13:13:23.828Z,5.70
2019-03-26T13:15:53.432Z,3.90
2019-03-26T13:18:23.016Z,4.23
2019-03-26T13:20:52.571Z,5.30
2019-03-26T13:23:21.959Z,5.30
2019-03-26T13:25:53.392Z,4.73
2019-03-26T13:28:23.449Z,4.57
2019-03-26T13:30:58.839Z,5.57
2019-03-26T13:33:33.699Z,4.13
2019-03-26T13:36:06.860Z,3.47
2019-03-26T13:38:43.132Z,5.13
2019-03-26T13:41:17.134Z,3.20
2019-03-26T13:43:46.757Z,3.33
2019-03-26T13:46:16.528Z,4.03
2019-03-26T13:48:46.405Z,3.87
2019-03-26T13:51:16.199Z,4.27
2019-03-26T13:53:45.990Z,3.03
2019-03-26T13:56:15.502Z,4.47
2019-03-26T13:58:54.239Z,4.13
2019-03-26T14:01:24.235Z,5.87
2019-03-26T14:04:00.296Z,3.97
2019-03-26T14:06:32.458Z,3.70
2019-03-26T14:09:01.963Z,5.17
2019-03-26T14:11:33.210Z,3.70
2019-03-26T14:14:03.308Z,6.20
2019-03-26T14:16:32.980Z,2.90
2019-03-26T14:19:04.196Z,5.53
2019-03-26T14:21:42.022Z,4.60
2019-03-26T14:24:13.281Z,3.63
2019-03-26T14:26:43.423Z,3.30
2019-03-26T14:29:13.270Z,3.43
2019-03-26T14:31:42.944Z,3.50
2019-03-26T14:34:12.612Z,3.97
2019-03-26T14:36:42.285Z,4.70
2019-03-26T14:39:12.248Z,4.50
2019-03-26T14:41:41.949Z,3.63
2019-03-26T14:44:12.402Z,5.77
2019-03-26T14:46:43.996Z,4.87
2019-03-26T14:49:14.621Z,4.33
2019-03-26T14:51:44.369Z,6.60
2019-03-26T14:54:14.044Z,4.00
2019-03-26T14:56:45.384Z,3.53
2019-03-26T14:59:15.240Z,5.13
2019-03-26T15:01:45.017Z,5.67
2019-03-26T15:04:14.598Z,4.97
2019-03-26T15:06:46.582Z,4.53
2019-03-26T15:09:16.276Z,3.93
2019-03-26T15:11:46.147Z,4.50
2019-03-26T15:14:15.883Z,6.20
2019-03-26T15:16:46.767Z,3.77
2019-03-26T15:19:16.627Z,4.23
2019-03-26T15:21:46.136Z,3.87
2019-03-26T15:24:15.524Z,3.47
2019-03-26T15:26:45.155Z,3.60
2019-03-26T15:29:14.909Z,3.57
2019-03-26T15:31:46.782Z,5.00
2019-03-26T15:34:16.260Z,3.10
2019-03-26T15:36:45.773Z,3.80
2019-03-26T15:39:15.424Z,4.13
2019-03-26T15:41:44.919Z,4.20
2019-03-26T15:44:14.481Z,5.73
2019-03-26T15:46:44.091Z,3.73
2019-03-26T15:49:13.705Z,5.93
2019-03-26T15:51:43.393Z,8.00
2019-03-26T15:54:13.030Z,3.97
2019-03-26T15:56:42.530Z,6.50
2019-03-26T15:59:11.934Z,4.83
2019-03-26T16:01:43.302Z,5.27
2019-03-26T16:04:12.917Z,3.87
2019-03-26T16:06:42.857Z,10.97
2019-03-26T16:09:14.912Z,4.67
2019-03-26T16:11:44.466Z,5.37
2019-03-26T16:14:13.972Z,7.53
2019-03-26T16:16:43.489Z,7.20
2019-03-26T16:19:13.047Z,5.90
2019-03-26T16:21:42.630Z,6.40
2019-03-26T16:24:12.585Z,9.97
2019-03-26T16:26:42.330Z,4.97
2019-03-26T16:29:11.850Z,5.70
2019-03-26T16:31:42.060Z,4.90
2019-03-26T16:34:11.576Z,6.47
2019-03-26T16:36:41.142Z,8.63
2019-03-26T16:39:10.773Z,5.70
2019-03-26T16:41:49.033Z,3.83
2019-03-26T16:44:11.628Z,4.83
2019-03-26T16:46:41.240Z,4.70
2019-03-26T16:49:11.035Z,4.23
2019-03-26T16:51:40.559Z,5.47
2019-03-26T16:54:10.185Z,3.90
2019-03-26T16:56:39.741Z,5.40
2019-03-26T16:59:09.302Z,5.63
2019-03-26T17:01:38.688Z,5.13
2019-03-26T17:04:08.254Z,7.43
2019-03-26T17:06:37.789Z,5.80
2019-03-26T17:09:08.260Z,5.10
2019-03-26T17:11:37.743Z,4.70
2019-03-26T17:14:07.136Z,5.83
2019-03-26T17:16:36.696Z,5.00
2019-03-26T17:19:06.184Z,7.37
2019-03-26T17:21:35.556Z,6.17
2019-03-26T17:24:05.078Z,5.40
2019-03-26T17:26:34.574Z,6.67
2019-03-26T17:29:04.194Z,7.40
2019-03-26T17:31:34.563Z,6.07
2019-03-26T17:34:04.176Z,6.13
2019-03-26T17:36:33.778Z,7.43
2019-03-26T17:39:08.442Z,6.07
2019-03-26T17:41:38.093Z,7.00
2019-03-26T17:44:07.975Z,9.27
2019-03-26T17:46:37.478Z,7.27
2019-03-26T17:49:07.240Z,8.27
2019-03-26T17:51:36.801Z,5.93
2019-03-26T17:54:06.425Z,7.93
2019-03-26T17:56:36.181Z,5.87
2019-03-26T17:59:05.883Z,14.80
2019-03-26T18:01:35.349Z,11.73
2019-03-26T18:04:05.140Z,12.63
2019-03-26T18:06:36.673Z,9.07
2019-03-26T18:09:08.548Z,7.63
2019-03-26T18:11:38.113Z,5.47
2019-03-26T18:14:07.715Z,6.67
2019-03-26T18:16:37.178Z,9.33
2019-03-26T18:19:06.721Z,8.47
2019-03-26T18:21:50.598Z,11.27
2019-03-26T18:24:08.540Z,9.60
2019-03-26T18:26:38.111Z,11.50
2019-03-26T18:29:07.689Z,13.17
2019-03-26T18:31:37.115Z,10.93
2019-03-26T18:34:06.804Z,8.83
2019-03-26T18:36:36.416Z,9.23
2019-03-26T18:39:07.966Z,6.77
2019-03-26T18:41:37.503Z,8.57
2019-03-26T18:44:07.017Z,7.73
2019-03-26T18:46:36.688Z,7.60
2019-03-26T18:49:06.300Z,6.73
2019-03-26T18:51:37.225Z,5.63
2019-03-26T18:54:06.863Z,7.33
2019-03-26T18:56:37.342Z,6.47
2019-03-26T18:59:06.821Z,7.43
2019-03-26T19:01:36.225Z,6.37
2019-03-26T19:04:05.876Z,6.53
2019-03-26T19:06:35.458Z,7.27
2019-03-26T19:09:06.959Z,8.27
2019-03-26T19:11:36.387Z,7.50
2019-03-26T19:14:06.276Z,7.67
2019-03-26T19:16:35.830Z,19.70
2019-03-26T19:19:06.773Z,18.80
2019-03-26T19:21:36.257Z,13.43
2019-03-26T19:24:05.767Z,8.20
2019-03-26T19:26:35.348Z,10.37
2019-03-26T19:29:04.976Z,6.00
2019-03-26T19:31:34.509Z,5.37
2019-03-26T19:34:03.981Z,5.53
2019-03-26T19:36:33.469Z,5.47
2019-03-26T19:39:06.691Z,6.47
2019-03-26T19:41:36.434Z,6.57
2019-03-26T19:44:05.995Z,7.90
2019-03-26T19:46:38.302Z,7.40
2019-03-26T19:49:07.803Z,6.27
2019-03-26T19:51:37.294Z,6.73
2019-03-26T19:54:08.592Z,6.60
2019-03-26T19:56:38.262Z,5.00
2019-03-26T19:59:07.801Z,5.93
2019-03-26T20:01:38.578Z,7.13
2019-03-26T20:04:08.041Z,5.03
2019-03-26T20:06:37.667Z,4.70
2019-03-26T20:09:07.765Z,8.80
2019-03-26T20:11:37.249Z,6.50
2019-03-26T20:14:06.832Z,6.10
2019-03-26T20:16:42.019Z,7.27
2019-03-26T20:19:09.892Z,5.03
2019-03-26T20:21:39.377Z,6.97
2019-03-26T20:24:08.936Z,7.80
2019-03-26T20:26:38.486Z,7.03
2019-03-26T20:29:08.118Z,6.97
2019-03-26T20:31:37.620Z,6.60
2019-03-26T20:34:07.088Z,7.50
2019-03-26T20:36:36.572Z,4.93
2019-03-26T20:39:07.516Z,4.80
2019-03-26T20:41:37.065Z,4.97
2019-03-26T20:44:06.632Z,5.47
2019-03-26T20:46:36.221Z,5.77
2019-03-26T20:49:05.920Z,7.03
2019-03-26T20:51:35.534Z,6.53
2019-03-26T20:54:05.208Z,7.07
2019-03-26T20:56:35.432Z,11.70
2019-03-26T20:59:05.372Z,16.43
2019-03-26T21:01:35.121Z,15.73
2019-03-26T21:04:04.675Z,9.60
2019-03-26T21:06:34.196Z,9.70
2019-03-26T21:09:05.377Z,11.37
2019-03-26T21:11:37.716Z,7.53
2019-03-26T21:14:07.366Z,7.63
2019-03-26T21:16:36.752Z,6.87
2019-03-26T21:19:06.324Z,8.80
2019-03-26T21:21:37.389Z,8.73
2019-03-26T21:24:06.859Z,7.47
2019-03-26T21:26:36.326Z,7.30
2019-03-26T21:29:05.711Z,7.53
2019-03-26T21:31:35.100Z,8.13
2019-03-26T21:34:04.669Z,8.43
2019-03-26T21:36:34.043Z,8.33
2019-03-26T21:39:04.634Z,7.93
2019-03-26T21:41:34.185Z,8.87
2019-03-26T21:44:12.592Z,10.33
2019-03-26T21:46:42.080Z,6.83
2019-03-26T21:49:11.647Z,7.57
2019-03-26T21:51:41.801Z,8.10
2019-03-26T21:54:11.457Z,9.00
2019-03-26T21:56:40.841Z,6.80
2019-03-26T21:59:10.211Z,7.80
2019-03-26T22:01:39.663Z,8.73
2019-03-26T22:04:09.047Z,8.97
2019-03-26T22:06:38.492Z,8.57
2019-03-26T22:09:08.248Z,8.03
2019-03-26T22:11:49.113Z,9.60
2019-03-26T22:14:18.068Z,7.00
2019-03-26T22:16:40.180Z,6.63
2019-03-26T22:19:09.716Z,10.03
2019-03-26T22:21:40.828Z,8.60
2019-03-26T22:24:10.231Z,10.57
2019-03-26T22:26:40.987Z,10.77
2019-03-26T22:29:11.275Z,10.30
2019-03-26T22:31:40.880Z,9.20
2019-03-26T22:34:10.256Z,7.53
2019-03-26T22:36:39.729Z,10.63
2019-03-26T22:39:09.316Z,9.50
2019-03-26T22:41:38.719Z,9.53
2019-03-26T22:44:08.195Z,9.73
2019-03-26T22:46:37.615Z,15.43
2019-03-26T22:49:07.038Z,90.87
2019-03-26T22:51:36.599Z,17.60
2019-03-26T22:54:05.996Z,12.37
2019-03-26T22:56:35.478Z,17.43
2019-03-26T22:59:04.960Z,17.00
2019-03-26T23:01:34.508Z,10.60
2019-03-26T23:04:04.053Z,14.53
2019-03-26T23:06:39.657Z,12.77
2019-03-26T23:09:10.486Z,13.63
2019-03-26T23:11:39.980Z,10.73
2019-03-26T23:14:09.463Z,13.60
2019-03-26T23:16:38.872Z,11.33
2019-03-26T23:19:08.320Z,9.70
2019-03-26T23:21:37.872Z,10.63
2019-03-26T23:24:07.404Z,13.20
2019-03-26T23:26:36.964Z,15.23
2019-03-26T23:29:08.061Z,17.23
2019-03-26T23:31:38.564Z,15.03
2019-03-26T23:34:07.988Z,21.40
2019-03-26T23:36:38.798Z,15.53
2019-03-26T23:39:08.273Z,8.57
2019-03-26T23:41:39.692Z,12.17
2019-03-26T23:44:09.008Z,10.10
2019-03-26T23:46:38.455Z,12.00
2019-03-26T23:49:07.997Z,13.53
2019-03-26T23:51:37.472Z,10.13
2019-03-26T23:54:06.872Z,12.47
2019-03-26T23:56:36.281Z,10.87
2019-03-26T23:59:05.679Z,18.63
